Oden — SMLQ — position and weather

sailwx.info

Track history (hours):
 
Tides and Currents Weather Stations Pressure Air Temp Water Temp Dewpoint Dewpoint Depression Visibility Wind Speed Wind Dir Waves Ship Positions

Oceanographic research ship Oden (Sweden)

Detailed information on ship capabilities available from ARCUS's ALIAS (Arctic Logistics Information and Support) project.

Last reported at 2017-Mar-26 11:00 UTC. Time now 2017-Mar-26 13:07 UTC.
Position N 65°06' E 022°42'.

Length 108 m; draft 8.6 m.

Type: Other ship. MMSI: 265182000.

Wind from 320 at 21 knots

Barometer 998.0 mb
Air temperature 3.9 ° C

Date/timePositionNaut miles runAvg speedWind from/ knotsBaromVisibWave heightAir tempDewpointWater temp
2017-Mar-26 11:00N 65°06' E 022°42'0 0.0 320 / 21998.0 3.9
2017-Mar-26 10:00N 65°06' E 022°42'0 0.0 290 / 17996.9 4.9
2017-Mar-26 09:00N 65°06' E 022°42'0 0.0 270 / 19996.8 3.8
2017-Mar-26 08:00N 65°06' E 022°42'0 0.0 250 / 27997.1 3.1
2017-Mar-26 07:00N 65°06' E 022°42'0 0.0 250 / 25997.7 3.0
2017-Mar-26 06:00N 65°06' E 022°42'0 0.0 270 / 21999.1 3.2
2017-Mar-26 05:00N 65°06' E 022°42'0 0.0 250 / 19100.0 2.0
2017-Mar-26 04:00N 65°06' E 022°42'0 0.0 240 / 211000.0 2.1
2017-Mar-26 03:00N 65°06' E 022°42'0 0.0 240 / 251001.2 2.2
2017-Mar-26 02:00N 65°06' E 022°42'6 6.0 220 / 251002.5 1.4
2017-Mar-26 01:00N 65°00' E 022°42'3 2.5 200 / 291003.9 1.6
2017-Mar-26 00:00N 65°00' E 022°36'0 0.0 220 / 231006.0 1.5
2017-Mar-25 23:00N 65°00' E 022°36'0 0.0 250 / 231007.6 2.5
2017-Mar-25 22:00N 65°00' E 022°36'0 0.0 220 / 231008.4 2.1
2017-Mar-25 21:00N 65°00' E 022°36'0 0.0 210 / 191010.0 2.2
2017-Mar-25 19:00N 65°00' E 022°36'7 6.5 230 / 171011.9 1.2
2017-Mar-25 18:00N 65°06' E 022°42'8 7.8 220 / 141011.9 0.4
2017-Mar-25 17:00N 65°12' E 022°54'8 7.8 220 / 171011.5 -0.7
2017-Mar-25 16:00N 65°18' E 023°06'0 0.0 200 / 161012.2 -1.7
2017-Mar-25 15:00N 65°18' E 023°06'0 0.0 170 / 141012.5 -1.4
2017-Mar-25 14:00N 65°18' E 023°06'0 0.0 170 / 81012.7 -0.6
2017-Mar-25 13:00N 65°18' E 023°06'0 0.0 160 / 41012.5 0.2
2017-Mar-25 12:00N 65°18' E 023°06'0 0.0 050 / 21012.4 1.7
2017-Mar-25 10:00N 65°18' E 023°06'0 0.0 300 / 41011.9 -1.5
2017-Mar-25 09:00N 65°18' E 023°06'3 2.5 350 / 81011.5 -1.1
2017-Mar-25 08:00N 65°18' E 023°00'0 0.0 330 / 81010.3 -1.4
2017-Mar-25 07:00N 65°18' E 023°00'0 0.0 330 / 61009.8 -1.7
2017-Mar-25 06:00N 65°18' E 023°00'0 0.0 360 / 41009.0 -2.1
2017-Mar-25 05:00N 65°18' E 023°00'0 0.0 270 / 81008.2 -1.8
2017-Mar-25 04:00N 65°18' E 023°00'0 0.0 260 / 61008.1 -2.1
2017-Mar-25 03:00N 65°18' E 023°00'0 0.0 250 / 101008.1 -2.3
2017-Mar-25 02:00N 65°18' E 023°00'0 0.0 250 / 81008.1 -1.5
2017-Mar-25 01:00N 65°18' E 023°00'0 0.0 240 / 101008.1 -1.4
2017-Mar-25 00:00N 65°18' E 023°00'0 0.0 210 / 101008.1 -1.7
2017-Mar-24 23:00N 65°18' E 023°00'0 0.0 220 / 101008.7 -1.4
2017-Mar-24 22:00N 65°18' E 023°00'0 0.0 240 / 121009.4 -1.5
2017-Mar-24 21:00N 65°18' E 023°00'0 0.0 240 / 101010.0 -1.0
2017-Mar-24 20:00N 65°18' E 023°00'0 0.0 230 / 141010.6 -1.5
2017-Mar-24 19:00N 65°18' E 023°00'0 0.0 220 / 121011.4 -1.9
2017-Mar-24 18:00N 65°18' E 023°00'21 7.1 200 / 141012.1 -3.2
2017-Mar-24 15:00N 65°30' E 022°18'6 6.5 180 / 121014.0 -0.4
2017-Mar-24 14:00N 65°36' E 022°12'0 0.0 180 / 121014.2 -0.0
2017-Mar-24 12:00N 65°36' E 022°12'0 0.0 270 / 101015.5 1.2
2017-Mar-24 11:00N 65°36' E 022°12'0 0.0 320 / 41015.7 0.5
2017-Mar-24 09:00N 65°36' E 022°12'0 0.0 320 / 81016.4 -1.9
2017-Mar-24 08:00N 65°36' E 022°12'0 0.0 320 / 81016.1 -3.7
2017-Mar-24 07:00N 65°36' E 022°12'0 0.0 320 / 101016.1 -5.9
2017-Mar-24 06:00N 65°36' E 022°12'0 0.0 320 / 101015.7 -6.5
2017-Mar-24 05:00N 65°36' E 022°12'0 0.0 310 / 121015.0 -7.1
2017-Mar-24 04:00N 65°36' E 022°12'0 0.0 320 / 101014.5 -6.8
2017-Mar-24 03:00N 65°36' E 022°12'0 0.0 320 / 81013.9 -6.5
2017-Mar-24 02:00N 65°36' E 022°12'0 0.0 310 / 101013.5 -6.1
2017-Mar-24 01:00N 65°36' E 022°12'0 0.0 320 / 101012.9 -5.2
2017-Mar-24 00:00N 65°36' E 022°12'0 0.0 310 / 121012.2 -4.2
2017-Mar-23 23:00N 65°36' E 022°12'0 0.0 310 / 141012.0 -3.7
2017-Mar-23 22:00N 65°36' E 022°12'0 0.0 310 / 141011.5 -2.7
2017-Mar-23 21:00N 65°36' E 022°12'0 0.0 300 / 141010.9 -2.0
2017-Mar-23 20:00N 65°36' E 022°12'0 0.0 310 / 121010.3 -1.3
2017-Mar-23 19:00N 65°36' E 022°12'0 0.0 300 / 161009.6 -0.3
2017-Mar-23 18:00N 65°36' E 022°12'0 0.0 300 / 101008.7 0.2
2017-Mar-23 17:00N 65°36' E 022°12'0 0.0 310 / 141007.7 0.7
2017-Mar-23 16:00N 65°36' E 022°12'0 0.0 310 / 171006.5 0.8
2017-Mar-23 15:00N 65°36' E 022°12'0 0.0 300 / 191005.2 1.1
2017-Mar-23 14:00N 65°36' E 022°12'0 0.0 300 / 171004.6 1.2
2017-Mar-23 13:00N 65°36' E 022°12'0 0.0 320 / 141004.1 -0.5
2017-Mar-23 12:00N 65°36' E 022°12'0 0.0 290 / 161003.2 0.9
2017-Mar-23 11:00N 65°36' E 022°12'0 0.0 310 / 171002.4 1.3
2017-Mar-23 10:00N 65°36' E 022°12'0 0.0 290 / 161001.7 1.5
2017-Mar-23 09:00N 65°36' E 022°12'0 0.0 300 / 101001.2 0.6
2017-Mar-23 08:00N 65°36' E 022°12'0 0.0 270 / 161001.2 -0.3
2017-Mar-23 07:00N 65°36' E 022°12'0 0.0 260 / 101001.3 -1.4
2017-Mar-23 06:00N 65°36' E 022°12'0 0.0 260 / 101001.1 -2.0
2017-Mar-23 05:00N 65°36' E 022°12'0 0.0 260 / 101001.1 -2.4
2017-Mar-23 04:00N 65°36' E 022°12'0 0.0 300 / 101000.7 -1.8
2017-Mar-23 03:00N 65°36' E 022°12'0 0.0 300 / 161000.3 -1.2
2017-Mar-23 02:00N 65°36' E 022°12'0 0.0 300 / 17999.4 -0.5
2017-Mar-23 01:00N 65°36' E 022°12'0 0.0 300 / 19998.3 0.5
2017-Mar-23 00:00N 65°36' E 022°12'0 0.0 290 / 14997.5 1.9
2017-Mar-22 23:00N 65°36' E 022°12'0 0.0 300 / 16996.6 2.4
2017-Mar-22 22:00N 65°36' E 022°12'0 0.0 290 / 12995.4 0.8
2017-Mar-22 21:00N 65°36' E 022°12'0 0.0 270 / 6994.4 0.1
2017-Mar-22 20:00N 65°36' E 022°12'0 0.0 180 / 6993.8 0.6
2017-Mar-22 19:00N 65°36' E 022°12'0 0.0 190 / 4993.9 0.9
2017-Mar-22 18:00N 65°36' E 022°12'0 0.0 190 / 8993.6 0.6
2017-Mar-22 17:00N 65°36' E 022°12'6 6.5 190 / 8993.3 1.3
2017-Mar-22 16:00N 65°30' E 022°18'6 6.0 260 / 4992.7 1.6
2017-Mar-22 15:00N 65°24' E 022°18'1212.0 240 / 16992.3 1.8
2017-Mar-22 14:00N 65°12' E 022°18'6 6.0 240 / 12992.0 1.0
2017-Mar-22 13:00N 65°06' E 022°18'1212.3 250 / 14992.1 0.9
2017-Mar-22 12:00N 64°54' E 022°24'0 0.0 230 / 14991.7 0.6
2017-Mar-22 09:00N 64°54' E 022°24'6 6.0 220 / 12989.4 -0.2
2017-Mar-22 08:00N 64°48' E 022°24'0 0.0 220 / 14989.1 -0.1
2017-Mar-22 07:00N 64°48' E 022°24'0 0.0 220 / 14988.5 -0.2
2017-Mar-22 06:00N 64°48' E 022°24'0 0.0 220 / 14988.2 -0.2
2017-Mar-22 05:00N 64°48' E 022°24'3 2.6 210 / 16987.8 -0.3
2017-Mar-22 04:00N 64°48' E 022°30'10 9.7 200 / 17987.4 -0.5
2017-Mar-22 03:00N 64°54' E 022°48'10 9.7 190 / 12987.7 -0.2
2017-Mar-22 02:00N 65°00' E 023°06'16 7.8 160 / 14988.4 0.3
2017-Mar-22 00:00N 65°12' E 023°30'8 7.8 130 / 19989.4 -0.1
2017-Mar-21 23:00N 65°06' E 023°18'10 9.7 120 / 17989.0 -0.0
2017-Mar-21 22:00N 65°00' E 023°00'10 9.7 100 / 23989.4 -0.1
2017-Mar-21 21:00N 64°54' E 022°42'10 9.7 090 / 19989.6 -0.0
2017-Mar-21 20:00N 64°48' E 022°24'3 2.6 090 / 23990.2 -0.0
2017-Mar-21 19:00N 64°48' E 022°30'0 0.0 100 / 21991.5 0.1
2017-Mar-21 18:00N 64°48' E 022°30'0 0.0 100 / 17992.3 -0.1
2017-Mar-21 17:00N 64°48' E 022°30'0 0.0 120 / 21992.9 -0.3
2017-Mar-21 16:00N 64°48' E 022°30'10 9.7 130 / 17993.5 -0.4
2017-Mar-21 15:00N 64°54' E 022°48'15 7.6 110 / 19994.3 -0.5
2017-Mar-21 13:00N 64°54' E 023°24'0 0.0 120 / 19995.7 -0.3
2017-Mar-21 12:00N 64°54' E 023°24'26 8.7 120 / 17995.7 -0.5
2017-Mar-21 09:00N 64°48' E 022°24'3 2.6 150 / 19995.9 -2.1
2017-Mar-21 08:00N 64°48' E 022°30'10 9.7 150 / 16996.5 -2.4
2017-Mar-21 07:00N 64°54' E 022°48'8 3.9 160 / 12996.9 -3.1
2017-Mar-21 05:00N 65°00' E 023°00'10 9.7 170 / 17997.4 -4.5
2017-Mar-21 04:00N 64°54' E 022°42'10 9.7 170 / 17997.5 -4.5
2017-Mar-21 03:00N 64°48' E 022°24'8 7.9 160 / 17997.4 -2.7
2017-Mar-21 02:00N 64°54' E 022°36'8 7.6 140 / 17998.0 -3.6
2017-Mar-21 01:00N 64°54' E 022°54'8 7.9 160 / 14998.2 -4.2
2017-Mar-21 00:00N 65°00' E 023°06'3 2.5 180 / 16999.1 -4.1
2017-Mar-20 23:00N 65°00' E 023°12'8 7.6 160 / 16999.4 -4.3
2017-Mar-20 22:00N 65°00' E 022°54'10 9.7 160 / 14999.3 -3.7
2017-Mar-20 21:00N 64°54' E 022°36'0 0.0 150 / 17999.4 -2.7
2017-Mar-20 20:00N 64°54' E 022°36'0 0.0 160 / 16999.4 -3.1
2017-Mar-20 19:00N 64°54' E 022°36'0 0.0 170 / 16999.8 -1.8
2017-Mar-20 18:00N 64°54' E 022°36'3 2.5 170 / 121000.4 -1.9
2017-Mar-20 17:00N 64°54' E 022°42'1211.8 200 / 191000.3 -0.9
2017-Mar-20 16:00N 65°00' E 023°06'10 9.7 190 / 171000.0 -1.5
2017-Mar-20 15:00N 65°06' E 023°24'1414.2 180 / 17999.8 -0.5
2017-Mar-20 14:00N 65°18' E 023°42'2211.0 170 / 141000.5 -1.2
2017-Mar-20 12:00N 65°00' E 023°12'8 7.6 160 / 161001.2 -2.4
2017-Mar-20 11:00N 65°00' E 022°54'10 9.7 180 / 141001.3 -2.8
2017-Mar-20 10:00N 65°06' E 023°12'17 5.8 180 / 171001.5 -3.7
2017-Mar-20 07:00N 64°54' E 022°42'5 5.1 160 / 171001.6 -5.1
2017-Mar-20 06:00N 64°54' E 022°30'8 7.9 160 / 171001.3 -4.4
2017-Mar-20 05:00N 65°00' E 022°18'0 0.0 170 / 161001.8 -4.5
2017-Mar-20 04:00N 65°00' E 022°18'0 0.0 170 / 161001.9 -4.3
2017-Mar-20 03:00N 65°00' E 022°18'0 0.0 170 / 191001.9 -4.3
2017-Mar-20 02:00N 65°00' E 022°18'0 0.0 170 / 161001.9 -4.4
2017-Mar-20 00:00N 65°00' E 022°18'0 0.0 150 / 121002.0 -3.9
2017-Mar-19 23:00N 65°00' E 022°18'0 0.0 140 / 101002.4 -4.7
2017-Mar-19 22:00N 65°00' E 022°18'0 0.0 170 / 161002.7 -3.3
2017-Mar-19 21:00N 65°00' E 022°18'0 0.0 170 / 141003.0 -3.8
2017-Mar-19 20:00N 65°00' E 022°18'0 0.0 170 / 161003.5 -3.7
2017-Mar-19 19:00N 65°00' E 022°18'0 0.0 170 / 141003.5 -3.3
2017-Mar-19 18:00N 65°00' E 022°18'0 0.0 170 / 141003.5 -3.2
2017-Mar-19 17:00N 65°00' E 022°18'0 0.0 170 / 141003.5 -3.3
2017-Mar-19 16:00N 65°00' E 022°18'0 0.0 170 / 101003.5 -2.8
2017-Mar-19 15:00N 65°00' E 022°18'0 0.0 180 / 121003.8 -2.3
2017-Mar-19 14:00N 65°00' E 022°18'0 0.0 180 / 101003.9 -2.1
2017-Mar-19 13:00N 65°00' E 022°18'0 0.0 180 / 61004.0 -2.3
2017-Mar-19 12:00N 65°00' E 022°18'0 0.0 190 / 61004.1 -2.0
2017-Mar-19 11:00N 65°00' E 022°18'0 0.0 220 / 41003.8 -2.6
2017-Mar-19 10:00N 65°00' E 022°18'0 0.0 220 / 41003.6 -3.1
2017-Mar-19 09:00N 65°00' E 022°18'0 0.0 180 / 61003.5 -3.6
2017-Mar-19 08:00N 65°00' E 022°18'0 0.0 190 / 21003.2 -4.1
2017-Mar-19 07:00N 65°00' E 022°18'0 0.0 180 / 21002.9 -4.0
2017-Mar-19 06:00N 65°00' E 022°18'0 0.0 320 / 21002.7 -5.0
2017-Mar-19 05:00N 65°00' E 022°18'0 0.0 350 / 61001.9 -5.1
2017-Mar-19 04:00N 65°00' E 022°18'0 0.0 330 / 61001.4 -4.7
2017-Mar-19 03:00N 65°00' E 022°18'0 0.0 320 / 101000.7 -4.5
2017-Mar-19 02:00N 65°00' E 022°18'0 0.0 320 / 101000.1 -4.3
2017-Mar-19 01:00N 65°00' E 022°18'0 0.0 320 / 8999.4 -4.0
2017-Mar-19 00:00N 65°00' E 022°18'0 0.0 320 / 10998.6 -3.6
2017-Mar-18 23:00N 65°00' E 022°18'0 0.0 360 / 10997.8 -3.2
2017-Mar-18 22:00N 65°00' E 022°18'3 2.5 340 / 12997.0 -3.0
2017-Mar-18 21:00N 65°00' E 022°24'1212.3 320 / 12995.9 -2.3
2017-Mar-18 20:00N 64°48' E 022°30'10 9.7 330 / 14994.6 -1.9
2017-Mar-18 19:00N 64°54' E 022°48'10 9.7 340 / 14993.6 -2.2
2017-Mar-18 18:00N 65°00' E 023°06'10 9.7 350 / 16991.9 -1.9
2017-Mar-18 17:00N 64°54' E 022°48'8 7.9 990.9 -0.2
2017-Mar-18 16:00N 64°48' E 022°36'7 6.5 320 / 16989.9 1.0
2017-Mar-18 15:00N 64°42' E 022°30'0 0.0 280 / 10988.9 1.2
2017-Mar-18 14:00N 64°42' E 022°30'0 0.0 280 / 10987.9 1.1
2017-Mar-18 13:00N 64°42' E 022°30'0 0.0 280 / 14987.0 1.3
2017-Mar-18 12:00N 64°42' E 022°30'0 0.0 300 / 17986.0 1.4
2017-Mar-18 11:00N 64°42' E 022°30'0 0.0 290 / 14984.9 1.2
2017-Mar-18 10:00N 64°42' E 022°30'0 0.0 300 / 16984.1 0.9
2017-Mar-18 09:00N 64°42' E 022°30'0 0.0 300 / 14983.2 0.7
2017-Mar-18 08:00N 64°42' E 022°30'0 0.0 300 / 12982.2 0.7
2017-Mar-18 07:00N 64°42' E 022°30'0 0.0 300 / 14981.6 0.4
2017-Mar-18 06:00N 64°42' E 022°30'0 0.0 270 / 12980.8 -0.4
2017-Mar-18 05:00N 64°42' E 022°30'0 0.0 230 / 10980.4 -0.8
2017-Mar-18 04:00N 64°42' E 022°30'0 0.0 190 / 10979.8 -2.1
2017-Mar-18 03:00N 64°42' E 022°30'3 2.6 190 / 12979.3 -1.4
2017-Mar-18 02:00N 64°42' E 022°24'0 0.0 190 / 12979.1 -1.1
2017-Mar-18 01:00N 64°42' E 022°24'0 0.0 190 / 12979.0 -0.8
2017-Mar-18 00:00N 64°42' E 022°24'0 0.0 180 / 12979.0 -1.3
2017-Mar-17 23:00N 64°42' E 022°24'0 0.0 170 / 16978.9 -0.7
2017-Mar-17 22:00N 64°42' E 022°24'0 0.0 180 / 16978.7 -0.7
2017-Mar-17 21:00N 64°42' E 022°24'0 0.0 190 / 16978.6 -0.2
2017-Mar-17 20:00N 64°42' E 022°24'0 0.0 190 / 16978.5 -0.2
2017-Mar-17 19:00N 64°42' E 022°24'0 0.0 190 / 16978.5 -0.1
2017-Mar-17 18:00N 64°42' E 022°24'0 0.0 190 / 16978.5 0.2
2017-Mar-17 17:00N 64°42' E 022°24'0 0.0 200 / 19978.5 0.4
2017-Mar-17 16:00N 64°42' E 022°24'3 2.6 190 / 14977.9 0.8
2017-Mar-17 15:00N 64°42' E 022°18'0 0.0 190 / 12978.3 1.8
2017-Mar-17 14:00N 64°42' E 022°18'0 0.0 200 / 14978.3 1.5
2017-Mar-17 13:00N 64°42' E 022°18'0 0.0 200 / 12978.5 1.1
2017-Mar-17 12:00N 64°42' E 022°18'0 0.0 200 / 14978.9 1.0
2017-Mar-17 11:00N 64°42' E 022°18'0 0.0 190 / 12979.2 0.8
2017-Mar-17 09:00N 64°42' E 022°18'0 0.0 200 / 14980.2 0.6
2017-Mar-17 08:00N 64°42' E 022°18'0 0.0 190 / 10980.3 0.5
2017-Mar-17 07:00N 64°42' E 022°18'0 0.0 200 / 12980.9 0.4
2017-Mar-17 06:00N 64°42' E 022°18'3 2.6 200 / 12981.1 0.3
2017-Mar-17 05:00N 64°42' E 022°12'6 3.0 190 / 14981.8 0.4
2017-Mar-17 03:00N 64°36' E 022°12'0 0.0 170 / 16984.0 0.4
2017-Mar-17 02:00N 64°36' E 022°12'0 0.0 180 / 23985.4 0.7
2017-Mar-17 01:00N 64°36' E 022°12'0 0.0 170 / 25987.2 0.8
2017-Mar-17 00:00N 64°36' E 022°12'0 0.0 160 / 21989.0 1.0
2017-Mar-16 23:00N 64°36' E 022°12'3 2.6 170 / 16990.6 1.0
2017-Mar-16 22:00N 64°36' E 022°06'0 0.0 170 / 23992.5 0.6
2017-Mar-16 21:00N 64°36' E 022°06'0 0.0 180 / 21994.5 0.4
2017-Mar-16 20:00N 64°36' E 022°06'0 0.0 180 / 21995.9 0.3
2017-Mar-16 19:00N 64°36' E 022°06'0 0.0 180 / 17997.2 0.4
2017-Mar-16 18:00N 64°36' E 022°06'0 0.0 190 / 21998.2 0.7
2017-Mar-16 17:00N 64°36' E 022°06'6 6.0 190 / 19999.2 0.8
2017-Mar-16 16:00N 64°30' E 022°06'0 0.0 200 / 171000.1 1.0
2017-Mar-16 15:00N 64°30' E 022°06'0 0.0 210 / 121001.2 2.9
2017-Mar-16 14:00N 64°30' E 022°06'7 3.3 250 / 171001.9 2.9
2017-Mar-16 12:00N 64°36' E 022°00'0 0.0 250 / 161002.5 3.6
2017-Mar-16 11:00N 64°36' E 022°00'   270 / 141002.6 2.4
Track history (hours):
 
Tides and Currents Weather Stations Pressure Air Temp Water Temp Dewpoint Dewpoint Depression Visibility Wind Speed Wind Dir Waves Ship Positions

Oceanographic research ship Oden (Sweden)

Detailed information on ship capabilities available from ARCUS's ALIAS (Arctic Logistics Information and Support) project.

Last reported at 2017-Mar-26 11:00 UTC. Time now 2017-Mar-26 13:07 UTC.
Position N 65°06' E 022°42'.

Length 108 m; draft 8.6 m.

Type: Other ship. MMSI: 265182000.

Wind from 320 at 21 knots

Barometer 998.0 mb
Air temperature 3.9 ° C

Date/timePositionNaut miles runAvg speedWind from/ knotsBaromVisibWave heightAir tempDewpointWater temp
2017-Mar-26 11:00N 65°06' E 022°42'0 0.0 320 / 21998.0 3.9
2017-Mar-26 10:00N 65°06' E 022°42'0 0.0 290 / 17996.9 4.9
2017-Mar-26 09:00N 65°06' E 022°42'0 0.0 270 / 19996.8 3.8
2017-Mar-26 08:00N 65°06' E 022°42'0 0.0 250 / 27997.1 3.1
2017-Mar-26 07:00N 65°06' E 022°42'0 0.0 250 / 25997.7 3.0
2017-Mar-26 06:00N 65°06' E 022°42'0 0.0 270 / 21999.1 3.2
2017-Mar-26 05:00N 65°06' E 022°42'0 0.0 250 / 19100.0 2.0
2017-Mar-26 04:00N 65°06' E 022°42'0 0.0 240 / 211000.0 2.1
2017-Mar-26 03:00N 65°06' E 022°42'0 0.0 240 / 251001.2 2.2
2017-Mar-26 02:00N 65°06' E 022°42'6 6.0 220 / 251002.5 1.4
2017-Mar-26 01:00N 65°00' E 022°42'3 2.5 200 / 291003.9 1.6
2017-Mar-26 00:00N 65°00' E 022°36'0 0.0 220 / 231006.0 1.5
2017-Mar-25 23:00N 65°00' E 022°36'0 0.0 250 / 231007.6 2.5
2017-Mar-25 22:00N 65°00' E 022°36'0 0.0 220 / 231008.4 2.1
2017-Mar-25 21:00N 65°00' E 022°36'0 0.0 210 / 191010.0 2.2
2017-Mar-25 19:00N 65°00' E 022°36'7 6.5 230 / 171011.9 1.2
2017-Mar-25 18:00N 65°06' E 022°42'8 7.8 220 / 141011.9 0.4
2017-Mar-25 17:00N 65°12' E 022°54'8 7.8 220 / 171011.5 -0.7
2017-Mar-25 16:00N 65°18' E 023°06'0 0.0 200 / 161012.2 -1.7
2017-Mar-25 15:00N 65°18' E 023°06'0 0.0 170 / 141012.5 -1.4
2017-Mar-25 14:00N 65°18' E 023°06'0 0.0 170 / 81012.7 -0.6
2017-Mar-25 13:00N 65°18' E 023°06'0 0.0 160 / 41012.5 0.2
2017-Mar-25 12:00N 65°18' E 023°06'0 0.0 050 / 21012.4 1.7
2017-Mar-25 10:00N 65°18' E 023°06'0 0.0 300 / 41011.9 -1.5
2017-Mar-25 09:00N 65°18' E 023°06'3 2.5 350 / 81011.5 -1.1
2017-Mar-25 08:00N 65°18' E 023°00'0 0.0 330 / 81010.3 -1.4
2017-Mar-25 07:00N 65°18' E 023°00'0 0.0 330 / 61009.8 -1.7
2017-Mar-25 06:00N 65°18' E 023°00'0 0.0 360 / 41009.0 -2.1
2017-Mar-25 05:00N 65°18' E 023°00'0 0.0 270 / 81008.2 -1.8
2017-Mar-25 04:00N 65°18' E 023°00'0 0.0 260 / 61008.1 -2.1
2017-Mar-25 03:00N 65°18' E 023°00'0 0.0 250 / 101008.1 -2.3
2017-Mar-25 02:00N 65°18' E 023°00'0 0.0 250 / 81008.1 -1.5
2017-Mar-25 01:00N 65°18' E 023°00'0 0.0 240 / 101008.1 -1.4
2017-Mar-25 00:00N 65°18' E 023°00'0 0.0 210 / 101008.1 -1.7
2017-Mar-24 23:00N 65°18' E 023°00'0 0.0 220 / 101008.7 -1.4
2017-Mar-24 22:00N 65°18' E 023°00'0 0.0 240 / 121009.4 -1.5
2017-Mar-24 21:00N 65°18' E 023°00'0 0.0 240 / 101010.0 -1.0
2017-Mar-24 20:00N 65°18' E 023°00'0 0.0 230 / 141010.6 -1.5
2017-Mar-24 19:00N 65°18' E 023°00'0 0.0 220 / 121011.4 -1.9
2017-Mar-24 18:00N 65°18' E 023°00'21 7.1 200 / 141012.1 -3.2
2017-Mar-24 15:00N 65°30' E 022°18'6 6.5 180 / 121014.0 -0.4
2017-Mar-24 14:00N 65°36' E 022°12'0 0.0 180 / 121014.2 -0.0
2017-Mar-24 12:00N 65°36' E 022°12'0 0.0 270 / 101015.5 1.2
2017-Mar-24 11:00N 65°36' E 022°12'0 0.0 320 / 41015.7 0.5
2017-Mar-24 09:00N 65°36' E 022°12'0 0.0 320 / 81016.4 -1.9
2017-Mar-24 08:00N 65°36' E 022°12'0 0.0 320 / 81016.1 -3.7
2017-Mar-24 07:00N 65°36' E 022°12'0 0.0 320 / 101016.1 -5.9
2017-Mar-24 06:00N 65°36' E 022°12'0 0.0 320 / 101015.7 -6.5
2017-Mar-24 05:00N 65°36' E 022°12'0 0.0 310 / 121015.0 -7.1
2017-Mar-24 04:00N 65°36' E 022°12'0 0.0 320 / 101014.5 -6.8
2017-Mar-24 03:00N 65°36' E 022°12'0 0.0 320 / 81013.9 -6.5
2017-Mar-24 02:00N 65°36' E 022°12'0 0.0 310 / 101013.5 -6.1
2017-Mar-24 01:00N 65°36' E 022°12'0 0.0 320 / 101012.9 -5.2
2017-Mar-24 00:00N 65°36' E 022°12'0 0.0 310 / 121012.2 -4.2
2017-Mar-23 23:00N 65°36' E 022°12'0 0.0 310 / 141012.0 -3.7
2017-Mar-23 22:00N 65°36' E 022°12'0 0.0 310 / 141011.5 -2.7
2017-Mar-23 21:00N 65°36' E 022°12'0 0.0 300 / 141010.9 -2.0
2017-Mar-23 20:00N 65°36' E 022°12'0 0.0 310 / 121010.3 -1.3
2017-Mar-23 19:00N 65°36' E 022°12'0 0.0 300 / 161009.6 -0.3
2017-Mar-23 18:00N 65°36' E 022°12'0 0.0 300 / 101008.7 0.2
2017-Mar-23 17:00N 65°36' E 022°12'0 0.0 310 / 141007.7 0.7
2017-Mar-23 16:00N 65°36' E 022°12'0 0.0 310 / 171006.5 0.8
2017-Mar-23 15:00N 65°36' E 022°12'0 0.0 300 / 191005.2 1.1
2017-Mar-23 14:00N 65°36' E 022°12'0 0.0 300 / 171004.6 1.2
2017-Mar-23 13:00N 65°36' E 022°12'0 0.0 320 / 141004.1 -0.5
2017-Mar-23 12:00N 65°36' E 022°12'0 0.0 290 / 161003.2 0.9
2017-Mar-23 11:00N 65°36' E 022°12'0 0.0 310 / 171002.4 1.3
2017-Mar-23 10:00N 65°36' E 022°12'0 0.0 290 / 161001.7 1.5
2017-Mar-23 09:00N 65°36' E 022°12'0 0.0 300 / 101001.2 0.6
2017-Mar-23 08:00N 65°36' E 022°12'0 0.0 270 / 161001.2 -0.3
2017-Mar-23 07:00N 65°36' E 022°12'0 0.0 260 / 101001.3 -1.4
2017-Mar-23 06:00N 65°36' E 022°12'0 0.0 260 / 101001.1 -2.0
2017-Mar-23 05:00N 65°36' E 022°12'0 0.0 260 / 101001.1 -2.4
2017-Mar-23 04:00N 65°36' E 022°12'0 0.0 300 / 101000.7 -1.8
2017-Mar-23 03:00N 65°36' E 022°12'0 0.0 300 / 161000.3 -1.2
2017-Mar-23 02:00N 65°36' E 022°12'0 0.0 300 / 17999.4 -0.5
2017-Mar-23 01:00N 65°36' E 022°12'0 0.0 300 / 19998.3 0.5
2017-Mar-23 00:00N 65°36' E 022°12'0 0.0 290 / 14997.5 1.9
2017-Mar-22 23:00N 65°36' E 022°12'0 0.0 300 / 16996.6 2.4
2017-Mar-22 22:00N 65°36' E 022°12'0 0.0 290 / 12995.4 0.8
2017-Mar-22 21:00N 65°36' E 022°12'0 0.0 270 / 6994.4 0.1
2017-Mar-22 20:00N 65°36' E 022°12'0 0.0 180 / 6993.8 0.6
2017-Mar-22 19:00N 65°36' E 022°12'0 0.0 190 / 4993.9 0.9
2017-Mar-22 18:00N 65°36' E 022°12'0 0.0 190 / 8993.6 0.6
2017-Mar-22 17:00N 65°36' E 022°12'6 6.5 190 / 8993.3 1.3
2017-Mar-22 16:00N 65°30' E 022°18'6 6.0 260 / 4992.7 1.6
2017-Mar-22 15:00N 65°24' E 022°18'1212.0 240 / 16992.3 1.8
2017-Mar-22 14:00N 65°12' E 022°18'6 6.0 240 / 12992.0 1.0
2017-Mar-22 13:00N 65°06' E 022°18'1212.3 250 / 14992.1 0.9
2017-Mar-22 12:00N 64°54' E 022°24'0 0.0 230 / 14991.7 0.6
2017-Mar-22 09:00N 64°54' E 022°24'6 6.0 220 / 12989.4 -0.2
2017-Mar-22 08:00N 64°48' E 022°24'0 0.0 220 / 14989.1 -0.1
2017-Mar-22 07:00N 64°48' E 022°24'0 0.0 220 / 14988.5 -0.2
2017-Mar-22 06:00N 64°48' E 022°24'0 0.0 220 / 14988.2 -0.2
2017-Mar-22 05:00N 64°48' E 022°24'3 2.6 210 / 16987.8 -0.3
2017-Mar-22 04:00N 64°48' E 022°30'10 9.7 200 / 17987.4 -0.5
2017-Mar-22 03:00N 64°54' E 022°48'10 9.7 190 / 12987.7 -0.2
2017-Mar-22 02:00N 65°00' E 023°06'16 7.8 160 / 14988.4 0.3
2017-Mar-22 00:00N 65°12' E 023°30'8 7.8 130 / 19989.4 -0.1
2017-Mar-21 23:00N 65°06' E 023°18'10 9.7 120 / 17989.0 -0.0
2017-Mar-21 22:00N 65°00' E 023°00'10 9.7 100 / 23989.4 -0.1
2017-Mar-21 21:00N 64°54' E 022°42'10 9.7 090 / 19989.6 -0.0
2017-Mar-21 20:00N 64°48' E 022°24'3 2.6 090 / 23990.2 -0.0
2017-Mar-21 19:00N 64°48' E 022°30'0 0.0 100 / 21991.5 0.1
2017-Mar-21 18:00N 64°48' E 022°30'0 0.0 100 / 17992.3 -0.1
2017-Mar-21 17:00N 64°48' E 022°30'0 0.0 120 / 21992.9 -0.3
2017-Mar-21 16:00N 64°48' E 022°30'10 9.7 130 / 17993.5 -0.4
2017-Mar-21 15:00N 64°54' E 022°48'15 7.6 110 / 19994.3 -0.5
2017-Mar-21 13:00N 64°54' E 023°24'0 0.0 120 / 19995.7 -0.3
2017-Mar-21 12:00N 64°54' E 023°24'26 8.7 120 / 17995.7 -0.5
2017-Mar-21 09:00N 64°48' E 022°24'3 2.6 150 / 19995.9 -2.1
2017-Mar-21 08:00N 64°48' E 022°30'10 9.7 150 / 16996.5 -2.4
2017-Mar-21 07:00N 64°54' E 022°48'8 3.9 160 / 12996.9 -3.1
2017-Mar-21 05:00N 65°00' E 023°00'10 9.7 170 / 17997.4 -4.5
2017-Mar-21 04:00N 64°54' E 022°42'10 9.7 170 / 17997.5 -4.5
2017-Mar-21 03:00N 64°48' E 022°24'8 7.9 160 / 17997.4 -2.7
2017-Mar-21 02:00N 64°54' E 022°36'8 7.6 140 / 17998.0 -3.6
2017-Mar-21 01:00N 64°54' E 022°54'8 7.9 160 / 14998.2 -4.2
2017-Mar-21 00:00N 65°00' E 023°06'3 2.5 180 / 16999.1 -4.1
2017-Mar-20 23:00N 65°00' E 023°12'8 7.6 160 / 16999.4 -4.3
2017-Mar-20 22:00N 65°00' E 022°54'10 9.7 160 / 14999.3 -3.7
2017-Mar-20 21:00N 64°54' E 022°36'0 0.0 150 / 17999.4 -2.7
2017-Mar-20 20:00N 64°54' E 022°36'0 0.0 160 / 16999.4 -3.1
2017-Mar-20 19:00N 64°54' E 022°36'0 0.0 170 / 16999.8 -1.8
2017-Mar-20 18:00N 64°54' E 022°36'3 2.5 170 / 121000.4 -1.9
2017-Mar-20 17:00N 64°54' E 022°42'1211.8 200 / 191000.3 -0.9
2017-Mar-20 16:00N 65°00' E 023°06'10 9.7 190 / 171000.0 -1.5
2017-Mar-20 15:00N 65°06' E 023°24'1414.2 180 / 17999.8 -0.5
2017-Mar-20 14:00N 65°18' E 023°42'2211.0 170 / 141000.5 -1.2
2017-Mar-20 12:00N 65°00' E 023°12'8 7.6 160 / 161001.2 -2.4
2017-Mar-20 11:00N 65°00' E 022°54'10 9.7 180 / 141001.3 -2.8
2017-Mar-20 10:00N 65°06' E 023°12'17 5.8 180 / 171001.5 -3.7
2017-Mar-20 07:00N 64°54' E 022°42'5 5.1 160 / 171001.6 -5.1
2017-Mar-20 06:00N 64°54' E 022°30'8 7.9 160 / 171001.3 -4.4
2017-Mar-20 05:00N 65°00' E 022°18'0 0.0 170 / 161001.8 -4.5
2017-Mar-20 04:00N 65°00' E 022°18'0 0.0 170 / 161001.9 -4.3
2017-Mar-20 03:00N 65°00' E 022°18'0 0.0 170 / 191001.9 -4.3
2017-Mar-20 02:00N 65°00' E 022°18'0 0.0 170 / 161001.9 -4.4
2017-Mar-20 00:00N 65°00' E 022°18'0 0.0 150 / 121002.0 -3.9
2017-Mar-19 23:00N 65°00' E 022°18'0 0.0 140 / 101002.4 -4.7
2017-Mar-19 22:00N 65°00' E 022°18'0 0.0 170 / 161002.7 -3.3
2017-Mar-19 21:00N 65°00' E 022°18'0 0.0 170 / 141003.0 -3.8
2017-Mar-19 20:00N 65°00' E 022°18'0 0.0 170 / 161003.5 -3.7
2017-Mar-19 19:00N 65°00' E 022°18'0 0.0 170 / 141003.5 -3.3
2017-Mar-19 18:00N 65°00' E 022°18'0 0.0 170 / 141003.5 -3.2
2017-Mar-19 17:00N 65°00' E 022°18'0 0.0 170 / 141003.5 -3.3
2017-Mar-19 16:00N 65°00' E 022°18'0 0.0 170 / 101003.5 -2.8
2017-Mar-19 15:00N 65°00' E 022°18'0 0.0 180 / 121003.8 -2.3
2017-Mar-19 14:00N 65°00' E 022°18'0 0.0 180 / 101003.9 -2.1
2017-Mar-19 13:00N 65°00' E 022°18'0 0.0 180 / 61004.0 -2.3
2017-Mar-19 12:00N 65°00' E 022°18'0 0.0 190 / 61004.1 -2.0
2017-Mar-19 11:00N 65°00' E 022°18'0 0.0 220 / 41003.8 -2.6
2017-Mar-19 10:00N 65°00' E 022°18'0 0.0 220 / 41003.6 -3.1
2017-Mar-19 09:00N 65°00' E 022°18'0 0.0 180 / 61003.5 -3.6
2017-Mar-19 08:00N 65°00' E 022°18'0 0.0 190 / 21003.2 -4.1
2017-Mar-19 07:00N 65°00' E 022°18'0 0.0 180 / 21002.9 -4.0
2017-Mar-19 06:00N 65°00' E 022°18'0 0.0 320 / 21002.7 -5.0
2017-Mar-19 05:00N 65°00' E 022°18'0 0.0 350 / 61001.9 -5.1
2017-Mar-19 04:00N 65°00' E 022°18'0 0.0 330 / 61001.4 -4.7
2017-Mar-19 03:00N 65°00' E 022°18'0 0.0 320 / 101000.7 -4.5
2017-Mar-19 02:00N 65°00' E 022°18'0 0.0 320 / 101000.1 -4.3
2017-Mar-19 01:00N 65°00' E 022°18'0 0.0 320 / 8999.4 -4.0
2017-Mar-19 00:00N 65°00' E 022°18'0 0.0 320 / 10998.6 -3.6
2017-Mar-18 23:00N 65°00' E 022°18'0 0.0 360 / 10997.8 -3.2
2017-Mar-18 22:00N 65°00' E 022°18'3 2.5 340 / 12997.0 -3.0
2017-Mar-18 21:00N 65°00' E 022°24'1212.3 320 / 12995.9 -2.3
2017-Mar-18 20:00N 64°48' E 022°30'10 9.7 330 / 14994.6 -1.9
2017-Mar-18 19:00N 64°54' E 022°48'10 9.7 340 / 14993.6 -2.2
2017-Mar-18 18:00N 65°00' E 023°06'10 9.7 350 / 16991.9 -1.9
2017-Mar-18 17:00N 64°54' E 022°48'8 7.9 990.9 -0.2
2017-Mar-18 16:00N 64°48' E 022°36'7 6.5 320 / 16989.9 1.0
2017-Mar-18 15:00N 64°42' E 022°30'0 0.0 280 / 10988.9 1.2
2017-Mar-18 14:00N 64°42' E 022°30'0 0.0 280 / 10987.9 1.1
2017-Mar-18 13:00N 64°42' E 022°30'0 0.0 280 / 14987.0 1.3
2017-Mar-18 12:00N 64°42' E 022°30'0 0.0 300 / 17986.0 1.4
2017-Mar-18 11:00N 64°42' E 022°30'0 0.0 290 / 14984.9 1.2
2017-Mar-18 10:00N 64°42' E 022°30'0 0.0 300 / 16984.1 0.9
2017-Mar-18 09:00N 64°42' E 022°30'0 0.0 300 / 14983.2 0.7
2017-Mar-18 08:00N 64°42' E 022°30'0 0.0 300 / 12982.2 0.7
2017-Mar-18 07:00N 64°42' E 022°30'0 0.0 300 / 14981.6 0.4
2017-Mar-18 06:00N 64°42' E 022°30'0 0.0 270 / 12980.8 -0.4
2017-Mar-18 05:00N 64°42' E 022°30'0 0.0 230 / 10980.4 -0.8
2017-Mar-18 04:00N 64°42' E 022°30'0 0.0 190 / 10979.8 -2.1
2017-Mar-18 03:00N 64°42' E 022°30'3 2.6 190 / 12979.3 -1.4
2017-Mar-18 02:00N 64°42' E 022°24'0 0.0 190 / 12979.1 -1.1
2017-Mar-18 01:00N 64°42' E 022°24'0 0.0 190 / 12979.0 -0.8
2017-Mar-18 00:00N 64°42' E 022°24'0 0.0 180 / 12979.0 -1.3
2017-Mar-17 23:00N 64°42' E 022°24'0 0.0 170 / 16978.9 -0.7
2017-Mar-17 22:00N 64°42' E 022°24'0 0.0 180 / 16978.7 -0.7
2017-Mar-17 21:00N 64°42' E 022°24'0 0.0 190 / 16978.6 -0.2
2017-Mar-17 20:00N 64°42' E 022°24'0 0.0 190 / 16978.5 -0.2
2017-Mar-17 19:00N 64°42' E 022°24'0 0.0 190 / 16978.5 -0.1
2017-Mar-17 18:00N 64°42' E 022°24'0 0.0 190 / 16978.5 0.2
2017-Mar-17 17:00N 64°42' E 022°24'0 0.0 200 / 19978.5 0.4
2017-Mar-17 16:00N 64°42' E 022°24'3 2.6 190 / 14977.9 0.8
2017-Mar-17 15:00N 64°42' E 022°18'0 0.0 190 / 12978.3 1.8
2017-Mar-17 14:00N 64°42' E 022°18'0 0.0 200 / 14978.3 1.5
2017-Mar-17 13:00N 64°42' E 022°18'0 0.0 200 / 12978.5 1.1
2017-Mar-17 12:00N 64°42' E 022°18'0 0.0 200 / 14978.9 1.0
2017-Mar-17 11:00N 64°42' E 022°18'0 0.0 190 / 12979.2 0.8
2017-Mar-17 09:00N 64°42' E 022°18'0 0.0 200 / 14980.2 0.6
2017-Mar-17 08:00N 64°42' E 022°18'0 0.0 190 / 10980.3 0.5
2017-Mar-17 07:00N 64°42' E 022°18'0 0.0 200 / 12980.9 0.4
2017-Mar-17 06:00N 64°42' E 022°18'3 2.6 200 / 12981.1 0.3
2017-Mar-17 05:00N 64°42' E 022°12'6 3.0 190 / 14981.8 0.4
2017-Mar-17 03:00N 64°36' E 022°12'0 0.0 170 / 16984.0 0.4
2017-Mar-17 02:00N 64°36' E 022°12'0 0.0 180 / 23985.4 0.7
2017-Mar-17 01:00N 64°36' E 022°12'0 0.0 170 / 25987.2 0.8
2017-Mar-17 00:00N 64°36' E 022°12'0 0.0 160 / 21989.0 1.0
2017-Mar-16 23:00N 64°36' E 022°12'3 2.6 170 / 16990.6 1.0
2017-Mar-16 22:00N 64°36' E 022°06'0 0.0 170 / 23992.5 0.6
2017-Mar-16 21:00N 64°36' E 022°06'0 0.0 180 / 21994.5 0.4
2017-Mar-16 20:00N 64°36' E 022°06'0 0.0 180 / 21995.9 0.3
2017-Mar-16 19:00N 64°36' E 022°06'0 0.0 180 / 17997.2 0.4
2017-Mar-16 18:00N 64°36' E 022°06'0 0.0 190 / 21998.2 0.7
2017-Mar-16 17:00N 64°36' E 022°06'6 6.0 190 / 19999.2 0.8
2017-Mar-16 16:00N 64°30' E 022°06'0 0.0 200 / 171000.1 1.0
2017-Mar-16 15:00N 64°30' E 022°06'0 0.0 210 / 121001.2 2.9
2017-Mar-16 14:00N 64°30' E 022°06'7 3.3 250 / 171001.9 2.9
2017-Mar-16 12:00N 64°36' E 022°00'0 0.0 250 / 161002.5 3.6
2017-Mar-16 11:00N 64°36' E 022°00'   270 / 141002.6 2.4

Dump ship's entire track history